sensor_id;sensor_type;location;lat;lon;timestamp;P1;durP1;ratioP1;P2;durP2;ratioP2
29202;SDS011;16245;51.170;4.884;2022-08-06T00:02:21;3.58;;;1.40;;
29202;SDS011;16245;51.170;4.884;2022-08-06T00:04:49;4.35;;;1.52;;
29202;SDS011;16245;51.170;4.884;2022-08-06T00:07:15;5.97;;;1.60;;
29202;SDS011;16245;51.170;4.884;2022-08-06T00:09:41;5.90;;;1.85;;
29202;SDS011;16245;51.170;4.884;2022-08-06T00:12:07;2.85;;;1.20;;
29202;SDS011;16245;51.170;4.884;2022-08-06T00:14:33;2.05;;;1.48;;
29202;SDS011;16245;51.170;4.884;2022-08-06T00:16:59;4.30;;;1.75;;
29202;SDS011;16245;51.170;4.884;2022-08-06T00:19:25;9.18;;;1.63;;
29202;SDS011;16245;51.170;4.884;2022-08-06T00:21:51;3.08;;;1.88;;
29202;SDS011;16245;51.170;4.884;2022-08-06T00:24:17;2.78;;;1.60;;
29202;SDS011;16245;51.170;4.884;2022-08-06T00:26:43;4.47;;;1.55;;
29202;SDS011;16245;51.170;4.884;2022-08-06T00:29:10;4.20;;;1.75;;
29202;SDS011;16245;51.170;4.884;2022-08-06T00:31:35;3.05;;;1.67;;
29202;SDS011;16245;51.170;4.884;2022-08-06T00:34:01;4.00;;;1.60;;
29202;SDS011;16245;51.170;4.884;2022-08-06T00:36:29;5.50;;;1.88;;
29202;SDS011;16245;51.170;4.884;2022-08-06T00:38:56;4.57;;;1.60;;
29202;SDS011;16245;51.170;4.884;2022-08-06T00:41:23;3.25;;;1.85;;
29202;SDS011;16245;51.170;4.884;2022-08-06T00:43:49;2.97;;;1.45;;
29202;SDS011;16245;51.170;4.884;2022-08-06T00:46:15;3.67;;;1.67;;
29202;SDS011;16245;51.170;4.884;2022-08-06T00:48:41;6.13;;;1.42;;
29202;SDS011;16245;51.170;4.884;2022-08-06T00:51:08;3.83;;;1.70;;
29202;SDS011;16245;51.170;4.884;2022-08-06T00:53:33;4.07;;;1.40;;
29202;SDS011;16245;51.170;4.884;2022-08-06T00:56:01;6.32;;;1.50;;
29202;SDS011;16245;51.170;4.884;2022-08-06T00:58:27;4.00;;;1.80;;
29202;SDS011;16245;51.170;4.884;2022-08-06T01:00:53;3.60;;;1.55;;
29202;SDS011;16245;51.170;4.884;2022-08-06T01:03:19;3.67;;;2.28;;
29202;SDS011;16245;51.170;4.884;2022-08-06T01:05:45;3.28;;;1.63;;
29202;SDS011;16245;51.170;4.884;2022-08-06T01:08:10;3.83;;;1.60;;
29202;SDS011;16245;51.170;4.884;2022-08-06T01:10:37;6.15;;;1.80;;
29202;SDS011;16245;51.170;4.884;2022-08-06T01:13:03;5.57;;;1.95;;
29202;SDS011;16245;51.170;4.884;2022-08-06T01:15:28;4.35;;;1.70;;
29202;SDS011;16245;51.170;4.884;2022-08-06T01:17:59;3.75;;;1.80;;
29202;SDS011;16245;51.170;4.884;2022-08-06T01:20:47;3.05;;;1.73;;
29202;SDS011;16245;51.170;4.884;2022-08-06T01:29:16;3.90;;;1.35;;
29202;SDS011;16245;51.170;4.884;2022-08-06T01:32:00;4.68;;;1.27;;
29202;SDS011;16245;51.170;4.884;2022-08-06T01:34:35;2.88;;;1.52;;
29202;SDS011;16245;51.170;4.884;2022-08-06T01:39:44;4.45;;;1.80;;
29202;SDS011;16245;51.170;4.884;2022-08-06T01:42:13;3.92;;;1.70;;
29202;SDS011;16245;51.170;4.884;2022-08-06T01:44:42;2.83;;;1.85;;
29202;SDS011;16245;51.170;4.884;2022-08-06T01:47:11;3.28;;;1.58;;
29202;SDS011;16245;51.170;4.884;2022-08-06T01:49:39;4.05;;;1.70;;
29202;SDS011;16245;51.170;4.884;2022-08-06T01:52:08;5.57;;;2.00;;
29202;SDS011;16245;51.170;4.884;2022-08-06T01:54:39;3.15;;;1.58;;
29202;SDS011;16245;51.170;4.884;2022-08-06T01:57:07;5.07;;;1.80;;
29202;SDS011;16245;51.170;4.884;2022-08-06T01:59:36;3.22;;;1.63;;
29202;SDS011;16245;51.170;4.884;2022-08-06T02:02:08;2.70;;;1.65;;
29202;SDS011;16245;51.170;4.884;2022-08-06T02:04:38;4.22;;;2.22;;
29202;SDS011;16245;51.170;4.884;2022-08-06T02:07:08;5.35;;;1.60;;
29202;SDS011;16245;51.170;4.884;2022-08-06T02:09:37;3.65;;;1.98;;
29202;SDS011;16245;51.170;4.884;2022-08-06T02:12:08;5.50;;;1.83;;
29202;SDS011;16245;51.170;4.884;2022-08-06T02:14:51;4.13;;;1.85;;
29202;SDS011;16245;51.170;4.884;2022-08-06T02:17:23;1.63;;;1.50;;
29202;SDS011;16245;51.170;4.884;2022-08-06T02:19:52;2.75;;;1.48;;
29202;SDS011;16245;51.170;4.884;2022-08-06T02:22:20;3.15;;;1.77;;
29202;SDS011;16245;51.170;4.884;2022-08-06T02:24:47;4.85;;;2.03;;
29202;SDS011;16245;51.170;4.884;2022-08-06T02:27:14;3.90;;;1.52;;
29202;SDS011;16245;51.170;4.884;2022-08-06T02:29:42;3.13;;;1.50;;
29202;SDS011;16245;51.170;4.884;2022-08-06T02:32:10;3.17;;;2.03;;
29202;SDS011;16245;51.170;4.884;2022-08-06T02:34:38;4.35;;;1.88;;
29202;SDS011;16245;51.170;4.884;2022-08-06T02:37:13;3.30;;;1.88;;
29202;SDS011;16245;51.170;4.884;2022-08-06T02:39:55;5.32;;;2.20;;
29202;SDS011;16245;51.170;4.884;2022-08-06T02:42:31;4.93;;;2.17;;
29202;SDS011;16245;51.170;4.884;2022-08-06T02:45:18;5.93;;;2.38;;
29202;SDS011;16245;51.170;4.884;2022-08-06T02:50:40;3.47;;;1.80;;
29202;SDS011;16245;51.170;4.884;2022-08-06T02:53:11;4.93;;;1.85;;
29202;SDS011;16245;51.170;4.884;2022-08-06T02:55:42;4.15;;;1.90;;
29202;SDS011;16245;51.170;4.884;2022-08-06T02:58:11;3.33;;;1.92;;
29202;SDS011;16245;51.170;4.884;2022-08-06T03:00:56;4.40;;;1.75;;
29202;SDS011;16245;51.170;4.884;2022-08-06T03:03:23;4.47;;;2.03;;
29202;SDS011;16245;51.170;4.884;2022-08-06T03:05:50;4.30;;;2.35;;
29202;SDS011;16245;51.170;4.884;2022-08-06T03:08:18;4.38;;;2.03;;
29202;SDS011;16245;51.170;4.884;2022-08-06T03:10:48;6.22;;;2.22;;
29202;SDS011;16245;51.170;4.884;2022-08-06T03:13:16;2.90;;;1.90;;
29202;SDS011;16245;51.170;4.884;2022-08-06T03:15:43;2.42;;;1.70;;
29202;SDS011;16245;51.170;4.884;2022-08-06T03:18:11;4.55;;;1.98;;
29202;SDS011;16245;51.170;4.884;2022-08-06T03:20:40;5.05;;;2.05;;
29202;SDS011;16245;51.170;4.884;2022-08-06T03:23:07;2.33;;;2.00;;
29202;SDS011;16245;51.170;4.884;2022-08-06T03:25:34;4.10;;;2.13;;
29202;SDS011;16245;51.170;4.884;2022-08-06T03:28:02;2.67;;;1.80;;
29202;SDS011;16245;51.170;4.884;2022-08-06T03:30:28;2.85;;;1.75;;
29202;SDS011;16245;51.170;4.884;2022-08-06T03:32:55;4.22;;;1.58;;
29202;SDS011;16245;51.170;4.884;2022-08-06T03:35:22;2.40;;;1.77;;
29202;SDS011;16245;51.170;4.884;2022-08-06T03:37:49;5.80;;;2.20;;
29202;SDS011;16245;51.170;4.884;2022-08-06T03:40:17;3.38;;;1.77;;
29202;SDS011;16245;51.170;4.884;2022-08-06T03:42:44;4.07;;;1.92;;
29202;SDS011;16245;51.170;4.884;2022-08-06T03:45:10;5.35;;;2.42;;
29202;SDS011;16245;51.170;4.884;2022-08-06T03:47:57;4.53;;;1.50;;
29202;SDS011;16245;51.170;4.884;2022-08-06T03:50:25;4.53;;;2.15;;
29202;SDS011;16245;51.170;4.884;2022-08-06T03:53:02;5.63;;;2.33;;
29202;SDS011;16245;51.170;4.884;2022-08-06T03:55:33;3.42;;;1.83;;
29202;SDS011;16245;51.170;4.884;2022-08-06T03:58:02;4.95;;;1.67;;
29202;SDS011;16245;51.170;4.884;2022-08-06T04:00:32;2.90;;;1.58;;
29202;SDS011;16245;51.170;4.884;2022-08-06T04:03:01;3.88;;;1.98;;
29202;SDS011;16245;51.170;4.884;2022-08-06T04:05:29;3.33;;;1.98;;
29202;SDS011;16245;51.170;4.884;2022-08-06T04:08:01;2.72;;;1.80;;
29202;SDS011;16245;51.170;4.884;2022-08-06T04:10:31;2.95;;;1.83;;
29202;SDS011;16245;51.170;4.884;2022-08-06T04:13:05;4.60;;;2.15;;
29202;SDS011;16245;51.170;4.884;2022-08-06T04:15:34;5.35;;;1.85;;
29202;SDS011;16245;51.170;4.884;2022-08-06T04:18:07;6.78;;;2.10;;
29202;SDS011;16245;51.170;4.884;2022-08-06T04:20:35;2.53;;;1.83;;
29202;SDS011;16245;51.170;4.884;2022-08-06T04:23:03;3.08;;;2.40;;
29202;SDS011;16245;51.170;4.884;2022-08-06T04:25:30;3.35;;;1.90;;
29202;SDS011;16245;51.170;4.884;2022-08-06T04:27:59;3.33;;;1.98;;
29202;SDS011;16245;51.170;4.884;2022-08-06T04:30:26;4.88;;;2.33;;
29202;SDS011;16245;51.170;4.884;2022-08-06T04:32:53;2.05;;;1.85;;
29202;SDS011;16245;51.170;4.884;2022-08-06T04:35:20;2.15;;;1.85;;
29202;SDS011;16245;51.170;4.884;2022-08-06T04:37:47;3.75;;;1.90;;
29202;SDS011;16245;51.170;4.884;2022-08-06T04:40:13;5.60;;;2.10;;
29202;SDS011;16245;51.170;4.884;2022-08-06T04:42:39;3.80;;;1.98;;
29202;SDS011;16245;51.170;4.884;2022-08-06T04:45:06;3.53;;;1.83;;
29202;SDS011;16245;51.170;4.884;2022-08-06T04:47:33;6.30;;;2.10;;
29202;SDS011;16245;51.170;4.884;2022-08-06T04:50:01;5.13;;;2.22;;
29202;SDS011;16245;51.170;4.884;2022-08-06T04:52:27;4.47;;;2.33;;
29202;SDS011;16245;51.170;4.884;2022-08-06T04:54:53;5.10;;;2.30;;
29202;SDS011;16245;51.170;4.884;2022-08-06T04:57:19;3.75;;;2.15;;
29202;SDS011;16245;51.170;4.884;2022-08-06T04:59:45;5.70;;;2.45;;
29202;SDS011;16245;51.170;4.884;2022-08-06T05:02:11;5.57;;;2.55;;
29202;SDS011;16245;51.170;4.884;2022-08-06T05:04:37;5.32;;;2.67;;
29202;SDS011;16245;51.170;4.884;2022-08-06T05:07:12;4.90;;;2.40;;
29202;SDS011;16245;51.170;4.884;2022-08-06T05:09:39;4.03;;;2.10;;
29202;SDS011;16245;51.170;4.884;2022-08-06T05:12:06;5.72;;;2.58;;
29202;SDS011;16245;51.170;4.884;2022-08-06T05:14:59;3.83;;;2.20;;
29202;SDS011;16245;51.170;4.884;2022-08-06T05:17:32;5.32;;;2.50;;
29202;SDS011;16245;51.170;4.884;2022-08-06T05:20:02;3.83;;;2.13;;
29202;SDS011;16245;51.170;4.884;2022-08-06T05:22:44;5.03;;;2.08;;
29202;SDS011;16245;51.170;4.884;2022-08-06T05:25:14;4.57;;;2.40;;
29202;SDS011;16245;51.170;4.884;2022-08-06T05:27:40;5.55;;;2.10;;
29202;SDS011;16245;51.170;4.884;2022-08-06T05:30:06;4.10;;;2.78;;
29202;SDS011;16245;51.170;4.884;2022-08-06T05:32:51;3.53;;;2.00;;
29202;SDS011;16245;51.170;4.884;2022-08-06T05:35:16;5.20;;;2.90;;
29202;SDS011;16245;51.170;4.884;2022-08-06T05:37:42;4.57;;;2.15;;
29202;SDS011;16245;51.170;4.884;2022-08-06T05:40:08;5.50;;;2.50;;
29202;SDS011;16245;51.170;4.884;2022-08-06T05:42:34;5.32;;;2.35;;
29202;SDS011;16245;51.170;4.884;2022-08-06T05:44:59;4.80;;;2.55;;
29202;SDS011;16245;51.170;4.884;2022-08-06T05:47:26;3.25;;;2.20;;
29202;SDS011;16245;51.170;4.884;2022-08-06T05:50:04;6.82;;;2.50;;
29202;SDS011;16245;51.170;4.884;2022-08-06T05:55:04;5.93;;;2.45;;
29202;SDS011;16245;51.170;4.884;2022-08-06T05:57:47;7.05;;;2.88;;
29202;SDS011;16245;51.170;4.884;2022-08-06T06:00:18;3.45;;;2.17;;
29202;SDS011;16245;51.170;4.884;2022-08-06T06:02:47;5.43;;;3.33;;
29202;SDS011;16245;51.170;4.884;2022-08-06T06:05:14;5.40;;;2.63;;
29202;SDS011;16245;51.170;4.884;2022-08-06T06:07:40;6.80;;;3.13;;
29202;SDS011;16245;51.170;4.884;2022-08-06T06:10:07;7.22;;;3.05;;
29202;SDS011;16245;51.170;4.884;2022-08-06T06:12:34;6.78;;;3.50;;
29202;SDS011;16245;51.170;4.884;2022-08-06T06:15:02;4.93;;;2.80;;
29202;SDS011;16245;51.170;4.884;2022-08-06T06:17:36;9.38;;;3.35;;
29202;SDS011;16245;51.170;4.884;2022-08-06T06:20:25;11.20;;;4.32;;
29202;SDS011;16245;51.170;4.884;2022-08-06T06:23:34;12.07;;;3.80;;
29202;SDS011;16245;51.170;4.884;2022-08-06T06:26:28;10.57;;;3.38;;
29202;SDS011;16245;51.170;4.884;2022-08-06T06:29:38;5.50;;;3.15;;
29202;SDS011;16245;51.170;4.884;2022-08-06T06:32:19;5.53;;;2.75;;
29202;SDS011;16245;51.170;4.884;2022-08-06T06:37:22;6.60;;;2.10;;
29202;SDS011;16245;51.170;4.884;2022-08-06T06:43:16;5.05;;;2.25;;
29202;SDS011;16245;51.170;4.884;2022-08-06T06:48:53;5.47;;;2.10;;
29202;SDS011;16245;51.170;4.884;2022-08-06T06:51:26;8.15;;;2.00;;
29202;SDS011;16245;51.170;4.884;2022-08-06T06:53:56;3.65;;;2.13;;
29202;SDS011;16245;51.170;4.884;2022-08-06T06:56:25;2.88;;;1.63;;
29202;SDS011;16245;51.170;4.884;2022-08-06T06:58:59;6.15;;;2.30;;
29202;SDS011;16245;51.170;4.884;2022-08-06T07:01:29;5.20;;;1.75;;
29202;SDS011;16245;51.170;4.884;2022-08-06T07:03:57;4.15;;;1.52;;
29202;SDS011;16245;51.170;4.884;2022-08-06T07:06:26;4.40;;;1.38;;
29202;SDS011;16245;51.170;4.884;2022-08-06T07:08:52;3.20;;;1.02;;
29202;SDS011;16245;51.170;4.884;2022-08-06T07:11:21;4.50;;;1.70;;
29202;SDS011;16245;51.170;4.884;2022-08-06T07:13:49;2.88;;;1.10;;
29202;SDS011;16245;51.170;4.884;2022-08-06T07:16:17;5.90;;;1.52;;
29202;SDS011;16245;51.170;4.884;2022-08-06T07:18:46;4.22;;;1.40;;
29202;SDS011;16245;51.170;4.884;2022-08-06T07:21:14;3.50;;;1.20;;
29202;SDS011;16245;51.170;4.884;2022-08-06T07:23:42;5.90;;;1.02;;
29202;SDS011;16245;51.170;4.884;2022-08-06T07:26:10;4.00;;;1.17;;
29202;SDS011;16245;51.170;4.884;2022-08-06T07:28:38;2.42;;;0.82;;
29202;SDS011;16245;51.170;4.884;2022-08-06T07:31:07;4.53;;;1.33;;
29202;SDS011;16245;51.170;4.884;2022-08-06T07:33:34;2.92;;;0.88;;
29202;SDS011;16245;51.170;4.884;2022-08-06T07:36:02;4.00;;;1.00;;
29202;SDS011;16245;51.170;4.884;2022-08-06T07:38:28;1.77;;;0.70;;
29202;SDS011;16245;51.170;4.884;2022-08-06T07:40:58;8.30;;;1.35;;
29202;SDS011;16245;51.170;4.884;2022-08-06T07:43:35;3.97;;;1.00;;
29202;SDS011;16245;51.170;4.884;2022-08-06T07:46:08;4.45;;;0.88;;
29202;SDS011;16245;51.170;4.884;2022-08-06T07:48:39;1.92;;;0.85;;
29202;SDS011;16245;51.170;4.884;2022-08-06T07:51:08;2.88;;;0.90;;
29202;SDS011;16245;51.170;4.884;2022-08-06T07:53:37;5.43;;;0.80;;
29202;SDS011;16245;51.170;4.884;2022-08-06T07:56:05;3.47;;;1.05;;
29202;SDS011;16245;51.170;4.884;2022-08-06T07:58:32;3.63;;;0.98;;
29202;SDS011;16245;51.170;4.884;2022-08-06T08:01:00;4.95;;;1.17;;
29202;SDS011;16245;51.170;4.884;2022-08-06T08:03:27;1.80;;;0.90;;
29202;SDS011;16245;51.170;4.884;2022-08-06T08:06:13;6.35;;;1.20;;
29202;SDS011;16245;51.170;4.884;2022-08-06T08:08:43;4.60;;;1.17;;
29202;SDS011;16245;51.170;4.884;2022-08-06T08:11:12;3.40;;;0.95;;
29202;SDS011;16245;51.170;4.884;2022-08-06T08:13:40;3.72;;;0.98;;
29202;SDS011;16245;51.170;4.884;2022-08-06T08:16:11;7.95;;;1.52;;
29202;SDS011;16245;51.170;4.884;2022-08-06T08:18:39;3.03;;;1.25;;
29202;SDS011;16245;51.170;4.884;2022-08-06T08:21:05;3.13;;;1.10;;
29202;SDS011;16245;51.170;4.884;2022-08-06T08:23:32;5.50;;;1.15;;
29202;SDS011;16245;51.170;4.884;2022-08-06T08:26:00;2.25;;;0.80;;
29202;SDS011;16245;51.170;4.884;2022-08-06T08:28:27;2.97;;;0.90;;
29202;SDS011;16245;51.170;4.884;2022-08-06T08:30:54;2.97;;;1.05;;
29202;SDS011;16245;51.170;4.884;2022-08-06T08:33:23;1.95;;;0.77;;
29202;SDS011;16245;51.170;4.884;2022-08-06T08:35:49;3.60;;;0.70;;
29202;SDS011;16245;51.170;4.884;2022-08-06T08:38:15;1.73;;;0.70;;
29202;SDS011;16245;51.170;4.884;2022-08-06T08:40:40;4.72;;;1.08;;
29202;SDS011;16245;51.170;4.884;2022-08-06T08:43:07;3.72;;;0.70;;
29202;SDS011;16245;51.170;4.884;2022-08-06T08:45:35;3.47;;;0.82;;
29202;SDS011;16245;51.170;4.884;2022-08-06T08:48:02;3.83;;;0.98;;
29202;SDS011;16245;51.170;4.884;2022-08-06T08:50:29;2.60;;;0.82;;
29202;SDS011;16245;51.170;4.884;2022-08-06T08:53:03;3.92;;;0.85;;
29202;SDS011;16245;51.170;4.884;2022-08-06T08:55:34;4.57;;;0.90;;
29202;SDS011;16245;51.170;4.884;2022-08-06T08:58:00;4.07;;;1.00;;
29202;SDS011;16245;51.170;4.884;2022-08-06T09:00:27;4.95;;;0.98;;
29202;SDS011;16245;51.170;4.884;2022-08-06T09:02:52;4.13;;;1.38;;
29202;SDS011;16245;51.170;4.884;2022-08-06T09:05:18;2.97;;;0.80;;
29202;SDS011;16245;51.170;4.884;2022-08-06T09:07:45;3.42;;;0.85;;
29202;SDS011;16245;51.170;4.884;2022-08-06T09:10:11;3.90;;;0.80;;
29202;SDS011;16245;51.170;4.884;2022-08-06T09:12:37;2.33;;;0.93;;
29202;SDS011;16245;51.170;4.884;2022-08-06T09:15:03;6.32;;;1.00;;
29202;SDS011;16245;51.170;4.884;2022-08-06T09:17:29;3.67;;;0.95;;
29202;SDS011;16245;51.170;4.884;2022-08-06T09:19:55;3.67;;;0.82;;
29202;SDS011;16245;51.170;4.884;2022-08-06T09:22:21;2.13;;;0.95;;
29202;SDS011;16245;51.170;4.884;2022-08-06T09:24:47;1.45;;;0.60;;
29202;SDS011;16245;51.170;4.884;2022-08-06T09:27:13;2.95;;;0.90;;
29202;SDS011;16245;51.170;4.884;2022-08-06T09:29:47;1.23;;;0.68;;
29202;SDS011;16245;51.170;4.884;2022-08-06T09:32:13;1.98;;;0.60;;
29202;SDS011;16245;51.170;4.884;2022-08-06T09:35:18;4.18;;;0.93;;
29202;SDS011;16245;51.170;4.884;2022-08-06T09:37:46;2.67;;;0.80;;
29202;SDS011;16245;51.170;4.884;2022-08-06T09:40:13;4.90;;;0.70;;
29202;SDS011;16245;51.170;4.884;2022-08-06T09:42:41;2.00;;;0.60;;
29202;SDS011;16245;51.170;4.884;2022-08-06T09:45:09;1.48;;;0.50;;
29202;SDS011;16245;51.170;4.884;2022-08-06T09:47:39;1.55;;;0.82;;
29202;SDS011;16245;51.170;4.884;2022-08-06T09:50:05;1.63;;;0.68;;
29202;SDS011;16245;51.170;4.884;2022-08-06T09:52:32;1.90;;;0.60;;
29202;SDS011;16245;51.170;4.884;2022-08-06T09:54:57;5.50;;;0.60;;
29202;SDS011;16245;51.170;4.884;2022-08-06T09:57:24;5.20;;;0.75;;
29202;SDS011;16245;51.170;4.884;2022-08-06T09:59:53;1.52;;;0.50;;
29202;SDS011;16245;51.170;4.884;2022-08-06T10:02:19;3.22;;;1.02;;
29202;SDS011;16245;51.170;4.884;2022-08-06T10:04:45;1.83;;;0.47;;
29202;SDS011;16245;51.170;4.884;2022-08-06T10:07:14;1.25;;;0.93;;
29202;SDS011;16245;51.170;4.884;2022-08-06T10:09:52;1.05;;;0.50;;
29202;SDS011;16245;51.170;4.884;2022-08-06T10:12:21;2.95;;;0.60;;
29202;SDS011;16245;51.170;4.884;2022-08-06T10:14:49;2.72;;;0.82;;
29202;SDS011;16245;51.170;4.884;2022-08-06T10:17:16;2.17;;;0.70;;
29202;SDS011;16245;51.170;4.884;2022-08-06T10:19:44;1.33;;;0.60;;
29202;SDS011;16245;51.170;4.884;2022-08-06T10:22:12;1.35;;;0.85;;
29202;SDS011;16245;51.170;4.884;2022-08-06T10:24:43;3.20;;;0.63;;
29202;SDS011;16245;51.170;4.884;2022-08-06T10:27:21;2.05;;;0.43;;
29202;SDS011;16245;51.170;4.884;2022-08-06T10:29:52;2.42;;;0.40;;
29202;SDS011;16245;51.170;4.884;2022-08-06T10:32:24;1.73;;;0.52;;
29202;SDS011;16245;51.170;4.884;2022-08-06T10:34:54;3.65;;;0.80;;
29202;SDS011;16245;51.170;4.884;2022-08-06T10:37:22;1.08;;;0.60;;
29202;SDS011;16245;51.170;4.884;2022-08-06T10:39:50;2.83;;;0.88;;
29202;SDS011;16245;51.170;4.884;2022-08-06T10:42:20;3.88;;;0.70;;
29202;SDS011;16245;51.170;4.884;2022-08-06T10:44:46;1.55;;;0.55;;
29202;SDS011;16245;51.170;4.884;2022-08-06T10:47:15;4.47;;;0.75;;
29202;SDS011;16245;51.170;4.884;2022-08-06T10:49:44;2.90;;;0.82;;
29202;SDS011;16245;51.170;4.884;2022-08-06T10:52:10;1.77;;;0.65;;
29202;SDS011;16245;51.170;4.884;2022-08-06T10:54:37;1.48;;;0.60;;
29202;SDS011;16245;51.170;4.884;2022-08-06T10:57:04;1.58;;;0.70;;
29202;SDS011;16245;51.170;4.884;2022-08-06T10:59:33;1.95;;;0.70;;
29202;SDS011;16245;51.170;4.884;2022-08-06T11:04:59;1.42;;;0.50;;
29202;SDS011;16245;51.170;4.884;2022-08-06T11:13:32;0.75;;;0.45;;
29202;SDS011;16245;51.170;4.884;2022-08-06T11:16:02;0.82;;;0.47;;
29202;SDS011;16245;51.170;4.884;2022-08-06T11:18:27;3.38;;;0.70;;
29202;SDS011;16245;51.170;4.884;2022-08-06T11:20:53;2.15;;;0.40;;
29202;SDS011;16245;51.170;4.884;2022-08-06T11:23:23;1.75;;;0.40;;
29202;SDS011;16245;51.170;4.884;2022-08-06T11:25:51;3.30;;;0.52;;
29202;SDS011;16245;51.170;4.884;2022-08-06T11:28:19;3.58;;;0.68;;
29202;SDS011;16245;51.170;4.884;2022-08-06T11:30:54;1.00;;;0.50;;
29202;SDS011;16245;51.170;4.884;2022-08-06T11:36:02;3.03;;;1.08;;
29202;SDS011;16245;51.170;4.884;2022-08-06T11:41:16;1.17;;;0.38;;
29202;SDS011;16245;51.170;4.884;2022-08-06T11:43:46;1.75;;;0.55;;
29202;SDS011;16245;51.170;4.884;2022-08-06T11:51:41;3.35;;;0.50;;
29202;SDS011;16245;51.170;4.884;2022-08-06T11:54:16;0.75;;;0.50;;
29202;SDS011;16245;51.170;4.884;2022-08-06T11:59:43;0.50;;;0.30;;
29202;SDS011;16245;51.170;4.884;2022-08-06T12:07:38;1.42;;;0.88;;
29202;SDS011;16245;51.170;4.884;2022-08-06T12:12:49;2.67;;;0.50;;
29202;SDS011;16245;51.170;4.884;2022-08-06T12:18:02;1.63;;;0.47;;
29202;SDS011;16245;51.170;4.884;2022-08-06T12:20:43;1.42;;;0.55;;
29202;SDS011;16245;51.170;4.884;2022-08-06T12:23:09;1.27;;;0.50;;
29202;SDS011;16245;51.170;4.884;2022-08-06T12:25:41;1.58;;;0.50;;
29202;SDS011;16245;51.170;4.884;2022-08-06T12:28:08;2.17;;;0.60;;
29202;SDS011;16245;51.170;4.884;2022-08-06T12:33:13;2.38;;;0.50;;
29202;SDS011;16245;51.170;4.884;2022-08-06T12:35:58;2.35;;;0.77;;
29202;SDS011;16245;51.170;4.884;2022-08-06T12:38:26;1.10;;;0.50;;
29202;SDS011;16245;51.170;4.884;2022-08-06T12:41:03;1.95;;;0.40;;
29202;SDS011;16245;51.170;4.884;2022-08-06T12:43:31;1.30;;;0.40;;
29202;SDS011;16245;51.170;4.884;2022-08-06T12:45:59;0.70;;;0.40;;
29202;SDS011;16245;51.170;4.884;2022-08-06T12:48:25;1.00;;;0.43;;
29202;SDS011;16245;51.170;4.884;2022-08-06T12:51:02;0.90;;;0.40;;
29202;SDS011;16245;51.170;4.884;2022-08-06T12:56:19;1.33;;;0.65;;
29202;SDS011;16245;51.170;4.884;2022-08-06T12:58:47;10.50;;;1.30;;
29202;SDS011;16245;51.170;4.884;2022-08-06T13:01:15;0.50;;;0.43;;
29202;SDS011;16245;51.170;4.884;2022-08-06T13:03:47;0.90;;;0.57;;
29202;SDS011;16245;51.170;4.884;2022-08-06T13:06:16;2.40;;;0.68;;
29202;SDS011;16245;51.170;4.884;2022-08-06T13:08:45;0.77;;;0.40;;
29202;SDS011;16245;51.170;4.884;2022-08-06T13:11:12;1.48;;;0.40;;
29202;SDS011;16245;51.170;4.884;2022-08-06T13:16:10;1.55;;;0.60;;
29202;SDS011;16245;51.170;4.884;2022-08-06T13:18:37;1.80;;;0.38;;
29202;SDS011;16245;51.170;4.884;2022-08-06T13:21:17;0.65;;;0.50;;
29202;SDS011;16245;51.170;4.884;2022-08-06T13:23:49;0.47;;;0.30;;
29202;SDS011;16245;51.170;4.884;2022-08-06T13:26:20;0.88;;;0.60;;
29202;SDS011;16245;51.170;4.884;2022-08-06T13:31:37;2.17;;;0.60;;
29202;SDS011;16245;51.170;4.884;2022-08-06T13:34:09;0.73;;;0.50;;
29202;SDS011;16245;51.170;4.884;2022-08-06T13:36:37;1.80;;;0.93;;
29202;SDS011;16245;51.170;4.884;2022-08-06T13:42:06;1.25;;;0.50;;
29202;SDS011;16245;51.170;4.884;2022-08-06T13:44:34;1.42;;;0.65;;
29202;SDS011;16245;51.170;4.884;2022-08-06T13:47:05;1.10;;;0.73;;
29202;SDS011;16245;51.170;4.884;2022-08-06T13:49:32;1.70;;;0.68;;
29202;SDS011;16245;51.170;4.884;2022-08-06T13:51:58;1.75;;;0.88;;
29202;SDS011;16245;51.170;4.884;2022-08-06T13:54:24;0.75;;;0.55;;
29202;SDS011;16245;51.170;4.884;2022-08-06T13:56:51;3.60;;;0.70;;
29202;SDS011;16245;51.170;4.884;2022-08-06T13:59:17;2.08;;;0.75;;
29202;SDS011;16245;51.170;4.884;2022-08-06T14:01:45;3.80;;;0.63;;
29202;SDS011;16245;51.170;4.884;2022-08-06T14:04:12;1.48;;;0.70;;
29202;SDS011;16245;51.170;4.884;2022-08-06T14:06:39;0.65;;;0.65;;
29202;SDS011;16245;51.170;4.884;2022-08-06T14:09:10;3.47;;;0.90;;
29202;SDS011;16245;51.170;4.884;2022-08-06T14:11:36;1.05;;;0.60;;
29202;SDS011;16245;51.170;4.884;2022-08-06T14:14:01;2.33;;;0.88;;
29202;SDS011;16245;51.170;4.884;2022-08-06T14:16:27;2.33;;;0.98;;
29202;SDS011;16245;51.170;4.884;2022-08-06T14:18:53;0.52;;;0.52;;
29202;SDS011;16245;51.170;4.884;2022-08-06T14:21:20;1.30;;;1.15;;
29202;SDS011;16245;51.170;4.884;2022-08-06T14:23:45;0.98;;;0.68;;
29202;SDS011;16245;51.170;4.884;2022-08-06T14:26:11;1.42;;;0.90;;
29202;SDS011;16245;51.170;4.884;2022-08-06T14:28:37;2.80;;;1.20;;
29202;SDS011;16245;51.170;4.884;2022-08-06T14:31:02;1.02;;;0.80;;
29202;SDS011;16245;51.170;4.884;2022-08-06T14:33:29;1.35;;;1.00;;
29202;SDS011;16245;51.170;4.884;2022-08-06T14:35:54;1.83;;;1.30;;
29202;SDS011;16245;51.170;4.884;2022-08-06T14:38:20;2.58;;;1.30;;
29202;SDS011;16245;51.170;4.884;2022-08-06T14:40:46;1.70;;;1.10;;
29202;SDS011;16245;51.170;4.884;2022-08-06T14:43:31;1.25;;;1.02;;
29202;SDS011;16245;51.170;4.884;2022-08-06T14:46:15;2.05;;;0.90;;
29202;SDS011;16245;51.170;4.884;2022-08-06T14:48:40;2.45;;;1.20;;
29202;SDS011;16245;51.170;4.884;2022-08-06T14:51:06;2.30;;;1.02;;
29202;SDS011;16245;51.170;4.884;2022-08-06T14:53:32;2.25;;;0.98;;
29202;SDS011;16245;51.170;4.884;2022-08-06T14:55:58;1.08;;;0.90;;
29202;SDS011;16245;51.170;4.884;2022-08-06T14:58:23;2.42;;;1.17;;
29202;SDS011;16245;51.170;4.884;2022-08-06T15:00:49;3.13;;;1.23;;
29202;SDS011;16245;51.170;4.884;2022-08-06T15:03:16;2.78;;;1.20;;
29202;SDS011;16245;51.170;4.884;2022-08-06T15:05:43;3.75;;;1.40;;
29202;SDS011;16245;51.170;4.884;2022-08-06T15:08:10;1.40;;;1.20;;
29202;SDS011;16245;51.170;4.884;2022-08-06T15:10:36;3.65;;;1.17;;
29202;SDS011;16245;51.170;4.884;2022-08-06T15:13:02;1.98;;;1.10;;
29202;SDS011;16245;51.170;4.884;2022-08-06T15:15:29;1.75;;;1.05;;
29202;SDS011;16245;51.170;4.884;2022-08-06T15:17:56;2.00;;;1.00;;
29202;SDS011;16245;51.170;4.884;2022-08-06T15:20:21;1.90;;;1.00;;
29202;SDS011;16245;51.170;4.884;2022-08-06T15:22:47;2.53;;;1.20;;
29202;SDS011;16245;51.170;4.884;2022-08-06T15:25:12;2.05;;;0.95;;
29202;SDS011;16245;51.170;4.884;2022-08-06T15:27:42;3.70;;;1.38;;
29202;SDS011;16245;51.170;4.884;2022-08-06T15:30:11;4.53;;;1.20;;
29202;SDS011;16245;51.170;4.884;2022-08-06T15:32:38;3.08;;;1.25;;
29202;SDS011;16245;51.170;4.884;2022-08-06T15:35:04;1.85;;;1.20;;
29202;SDS011;16245;51.170;4.884;2022-08-06T15:37:30;3.05;;;1.25;;
29202;SDS011;16245;51.170;4.884;2022-08-06T15:39:56;2.03;;;1.33;;
29202;SDS011;16245;51.170;4.884;2022-08-06T15:42:24;2.55;;;1.17;;
29202;SDS011;16245;51.170;4.884;2022-08-06T15:44:53;1.98;;;1.27;;
29202;SDS011;16245;51.170;4.884;2022-08-06T15:47:19;1.30;;;1.20;;
29202;SDS011;16245;51.170;4.884;2022-08-06T15:49:46;1.55;;;1.10;;
29202;SDS011;16245;51.170;4.884;2022-08-06T15:52:11;3.90;;;2.00;;
29202;SDS011;16245;51.170;4.884;2022-08-06T15:54:37;2.92;;;1.65;;
29202;SDS011;16245;51.170;4.884;2022-08-06T15:57:03;1.75;;;1.45;;
29202;SDS011;16245;51.170;4.884;2022-08-06T15:59:29;3.00;;;1.20;;
29202;SDS011;16245;51.170;4.884;2022-08-06T16:01:54;1.58;;;1.13;;
29202;SDS011;16245;51.170;4.884;2022-08-06T16:04:20;3.80;;;1.40;;
29202;SDS011;16245;51.170;4.884;2022-08-06T16:06:45;1.60;;;1.13;;
29202;SDS011;16245;51.170;4.884;2022-08-06T16:09:11;2.65;;;1.45;;
29202;SDS011;16245;51.170;4.884;2022-08-06T16:11:38;1.27;;;1.10;;